sensor_id;sensor_type;location;lat;lon;timestamp;pressure;altitude;pressure_sealevel;temperature;humidity
62436;BME280;48480;50.252;18.848;2024-02-26T00:00:36;97669.14;;;6.71;68.96
62436;BME280;48480;50.252;18.848;2024-02-26T00:03:21;97666.85;;;6.69;69.00
62436;BME280;48480;50.252;18.848;2024-02-26T00:06:05;97667.36;;;6.66;69.20
62436;BME280;48480;50.252;18.848;2024-02-26T00:08:50;97665.67;;;6.61;69.31
62436;BME280;48480;50.252;18.848;2024-02-26T00:11:36;97667.52;;;6.58;69.37
62436;BME280;48480;50.252;18.848;2024-02-26T00:14:21;97664.00;;;6.58;69.42
62436;BME280;48480;50.252;18.848;2024-02-26T00:17:05;97664.22;;;6.60;69.35
62436;BME280;48480;50.252;18.848;2024-02-26T00:19:49;97667.46;;;6.66;69.36
62436;BME280;48480;50.252;18.848;2024-02-26T00:22:33;97661.56;;;6.67;69.38
62436;BME280;48480;50.252;18.848;2024-02-26T00:25:17;97663.45;;;6.65;69.40
62436;BME280;48480;50.252;18.848;2024-02-26T00:28:01;97660.33;;;6.58;69.45
62436;BME280;48480;50.252;18.848;2024-02-26T00:30:46;97659.61;;;6.53;69.64
62436;BME280;48480;50.252;18.848;2024-02-26T00:33:31;97649.66;;;6.40;69.73
62436;BME280;48480;50.252;18.848;2024-02-26T00:36:15;97662.76;;;6.40;69.79
62436;BME280;48480;50.252;18.848;2024-02-26T00:38:59;97664.98;;;6.33;70.04
62436;BME280;48480;50.252;18.848;2024-02-26T00:41:43;97665.59;;;6.30;70.22
62436;BME280;48480;50.252;18.848;2024-02-26T00:44:27;97667.57;;;6.28;70.49
62436;BME280;48480;50.252;18.848;2024-02-26T00:47:11;97670.38;;;6.27;70.58
62436;BME280;48480;50.252;18.848;2024-02-26T00:49:55;97670.04;;;6.22;70.60
62436;BME280;48480;50.252;18.848;2024-02-26T00:52:39;97673.59;;;6.17;70.81
62436;BME280;48480;50.252;18.848;2024-02-26T00:55:23;97669.90;;;6.13;70.96
62436;BME280;48480;50.252;18.848;2024-02-26T00:58:08;97673.40;;;6.18;71.02
62436;BME280;48480;50.252;18.848;2024-02-26T01:00:53;97672.53;;;6.25;71.05
62436;BME280;48480;50.252;18.848;2024-02-26T01:03:38;97669.45;;;6.31;70.92
62436;BME280;48480;50.252;18.848;2024-02-26T01:06:22;97669.34;;;6.33;70.86
62436;BME280;48480;50.252;18.848;2024-02-26T01:09:06;97670.30;;;6.30;70.91
62436;BME280;48480;50.252;18.848;2024-02-26T01:11:50;97664.02;;;6.22;71.17
62436;BME280;48480;50.252;18.848;2024-02-26T01:14:35;97668.48;;;6.16;71.29
62436;BME280;48480;50.252;18.848;2024-02-26T01:17:19;97667.81;;;6.10;71.54
62436;BME280;48480;50.252;18.848;2024-02-26T01:20:04;97669.66;;;6.06;71.77
62436;BME280;48480;50.252;18.848;2024-02-26T01:22:49;97667.09;;;6.03;71.95
62436;BME280;48480;50.252;18.848;2024-02-26T01:25:33;97664.22;;;6.00;72.17
62436;BME280;48480;50.252;18.848;2024-02-26T01:28:17;97662.27;;;5.99;72.16
62436;BME280;48480;50.252;18.848;2024-02-26T01:31:01;97662.17;;;5.99;72.29
62436;BME280;48480;50.252;18.848;2024-02-26T01:33:47;97666.09;;;6.00;72.29
62436;BME280;48480;50.252;18.848;2024-02-26T01:36:31;97662.78;;;5.97;72.29
62436;BME280;48480;50.252;18.848;2024-02-26T01:39:15;97664.06;;;6.00;72.33
62436;BME280;48480;50.252;18.848;2024-02-26T01:41:59;97657.27;;;6.06;72.25
62436;BME280;48480;50.252;18.848;2024-02-26T01:44:43;97656.33;;;6.13;72.09
62436;BME280;48480;50.252;18.848;2024-02-26T01:47:28;97652.41;;;6.16;72.05
62436;BME280;48480;50.252;18.848;2024-02-26T01:50:13;97656.04;;;6.07;72.19
62436;BME280;48480;50.252;18.848;2024-02-26T01:52:57;97659.45;;;6.01;72.31
62436;BME280;48480;50.252;18.848;2024-02-26T01:55:42;97658.02;;;5.95;72.51
62436;BME280;48480;50.252;18.848;2024-02-26T01:58:26;97655.40;;;5.92;72.63
62436;BME280;48480;50.252;18.848;2024-02-26T02:01:12;97652.80;;;5.84;72.71
62436;BME280;48480;50.252;18.848;2024-02-26T02:03:59;97651.69;;;5.75;73.09
62436;BME280;48480;50.252;18.848;2024-02-26T02:06:46;97648.27;;;5.66;73.30
62436;BME280;48480;50.252;18.848;2024-02-26T02:09:32;97652.40;;;5.65;73.55
62436;BME280;48480;50.252;18.848;2024-02-26T02:12:16;97651.84;;;5.64;73.52
62436;BME280;48480;50.252;18.848;2024-02-26T02:15:01;97650.77;;;5.65;73.64
62436;BME280;48480;50.252;18.848;2024-02-26T02:17:46;97649.39;;;5.69;73.58
62436;BME280;48480;50.252;18.848;2024-02-26T02:20:34;97650.98;;;5.73;73.54
62436;BME280;48480;50.252;18.848;2024-02-26T02:23:18;97655.65;;;5.78;73.51
62436;BME280;48480;50.252;18.848;2024-02-26T02:26:02;97652.06;;;5.81;73.46
62436;BME280;48480;50.252;18.848;2024-02-26T02:28:48;97652.35;;;5.81;73.60
62436;BME280;48480;50.252;18.848;2024-02-26T02:31:32;97649.91;;;5.78;73.66
62436;BME280;48480;50.252;18.848;2024-02-26T02:34:17;97647.50;;;5.77;73.69
62436;BME280;48480;50.252;18.848;2024-02-26T02:37:01;97647.30;;;5.76;73.72
62436;BME280;48480;50.252;18.848;2024-02-26T02:39:45;97646.98;;;5.74;73.69
62436;BME280;48480;50.252;18.848;2024-02-26T02:42:29;97643.63;;;5.69;73.83
62436;BME280;48480;50.252;18.848;2024-02-26T02:45:14;97642.11;;;5.66;73.98
62436;BME280;48480;50.252;18.848;2024-02-26T02:47:58;97633.11;;;5.53;74.16
62436;BME280;48480;50.252;18.848;2024-02-26T02:50:42;97641.91;;;5.61;74.11
62436;BME280;48480;50.252;18.848;2024-02-26T02:53:26;97645.23;;;5.65;74.16
62436;BME280;48480;50.252;18.848;2024-02-26T02:56:10;97638.63;;;5.70;74.16
62436;BME280;48480;50.252;18.848;2024-02-26T02:58:54;97639.00;;;5.76;74.04
62436;BME280;48480;50.252;18.848;2024-02-26T03:01:38;97636.48;;;5.72;74.00
62436;BME280;48480;50.252;18.848;2024-02-26T03:04:22;97636.15;;;5.66;74.15
62436;BME280;48480;50.252;18.848;2024-02-26T03:07:06;97634.45;;;5.61;74.36
62436;BME280;48480;50.252;18.848;2024-02-26T03:09:51;97635.52;;;5.59;74.51
62436;BME280;48480;50.252;18.848;2024-02-26T03:12:35;97641.80;;;5.57;74.64
62436;BME280;48480;50.252;18.848;2024-02-26T03:15:19;97641.96;;;5.56;74.65
62436;BME280;48480;50.252;18.848;2024-02-26T03:18:03;97638.93;;;5.54;74.72
62436;BME280;48480;50.252;18.848;2024-02-26T03:20:47;97635.90;;;5.52;74.77
62436;BME280;48480;50.252;18.848;2024-02-26T03:23:31;97633.48;;;5.51;75.05
62436;BME280;48480;50.252;18.848;2024-02-26T03:26:20;97637.85;;;5.53;74.88
62436;BME280;48480;50.252;18.848;2024-02-26T03:29:05;97631.73;;;5.57;74.83
62436;BME280;48480;50.252;18.848;2024-02-26T03:31:49;97633.27;;;5.64;74.78
62436;BME280;48480;50.252;18.848;2024-02-26T03:34:33;97632.09;;;5.71;74.59
62436;BME280;48480;50.252;18.848;2024-02-26T03:37:18;97631.58;;;5.74;74.47
62436;BME280;48480;50.252;18.848;2024-02-26T03:40:02;97629.33;;;5.73;74.43
62436;BME280;48480;50.252;18.848;2024-02-26T03:42:47;97628.95;;;5.74;74.38
62436;BME280;48480;50.252;18.848;2024-02-26T03:45:31;97628.52;;;5.76;74.38
62436;BME280;48480;50.252;18.848;2024-02-26T03:48:15;97623.85;;;5.75;74.28
62436;BME280;48480;50.252;18.848;2024-02-26T03:50:59;97617.90;;;5.75;74.26
62436;BME280;48480;50.252;18.848;2024-02-26T03:53:44;97618.45;;;5.72;74.19
62436;BME280;48480;50.252;18.848;2024-02-26T03:56:28;97614.46;;;5.70;74.23
62436;BME280;48480;50.252;18.848;2024-02-26T03:59:12;97616.74;;;5.70;74.28
62436;BME280;48480;50.252;18.848;2024-02-26T04:01:56;97611.77;;;5.69;74.24
62436;BME280;48480;50.252;18.848;2024-02-26T04:04:40;97609.48;;;5.71;74.18
62436;BME280;48480;50.252;18.848;2024-02-26T04:07:25;97605.56;;;5.73;74.13
62436;BME280;48480;50.252;18.848;2024-02-26T04:10:13;97606.09;;;5.73;74.08
62436;BME280;48480;50.252;18.848;2024-02-26T04:12:57;97605.67;;;5.70;74.14
62436;BME280;48480;50.252;18.848;2024-02-26T04:15:41;97607.20;;;5.69;74.16
62436;BME280;48480;50.252;18.848;2024-02-26T04:18:25;97598.77;;;5.64;74.25
62436;BME280;48480;50.252;18.848;2024-02-26T04:21:08;97592.50;;;5.59;74.34
62436;BME280;48480;50.252;18.848;2024-02-26T04:23:52;97595.66;;;5.59;74.42
62436;BME280;48480;50.252;18.848;2024-02-26T04:26:39;97596.48;;;5.64;74.33
62436;BME280;48480;50.252;18.848;2024-02-26T04:29:23;97587.52;;;5.70;74.09
62436;BME280;48480;50.252;18.848;2024-02-26T04:32:08;97584.77;;;5.72;74.07
62436;BME280;48480;50.252;18.848;2024-02-26T04:34:51;97583.13;;;5.70;74.05
62436;BME280;48480;50.252;18.848;2024-02-26T04:37:36;97590.95;;;5.65;74.05
62436;BME280;48480;50.252;18.848;2024-02-26T04:40:19;97584.35;;;5.62;74.27
62436;BME280;48480;50.252;18.848;2024-02-26T04:43:03;97586.07;;;5.60;74.33
62436;BME280;48480;50.252;18.848;2024-02-26T04:45:48;97587.09;;;5.57;74.40
62436;BME280;48480;50.252;18.848;2024-02-26T04:48:32;97582.88;;;5.55;74.48
62436;BME280;48480;50.252;18.848;2024-02-26T04:51:16;97578.35;;;5.53;74.45
62436;BME280;48480;50.252;18.848;2024-02-26T04:54:00;97580.41;;;5.52;74.54
62436;BME280;48480;50.252;18.848;2024-02-26T04:56:44;97581.77;;;5.51;74.51
62436;BME280;48480;50.252;18.848;2024-02-26T04:59:28;97581.48;;;5.49;74.54
62436;BME280;48480;50.252;18.848;2024-02-26T05:02:12;97584.89;;;5.50;74.60
62436;BME280;48480;50.252;18.848;2024-02-26T05:04:56;97581.30;;;5.53;74.47
62436;BME280;48480;50.252;18.848;2024-02-26T05:07:40;97583.19;;;5.56;74.55
62436;BME280;48480;50.252;18.848;2024-02-26T05:10:31;97585.15;;;5.58;74.55
62436;BME280;48480;50.252;18.848;2024-02-26T05:13:15;97589.98;;;5.59;74.49
62436;BME280;48480;50.252;18.848;2024-02-26T05:16:02;97591.48;;;5.56;74.58
62436;BME280;48480;50.252;18.848;2024-02-26T05:18:47;97597.05;;;5.53;74.63
62436;BME280;48480;50.252;18.848;2024-02-26T05:21:31;97597.71;;;5.51;74.59
62436;BME280;48480;50.252;18.848;2024-02-26T05:24:15;97593.11;;;5.46;74.67
62436;BME280;48480;50.252;18.848;2024-02-26T05:27:01;97593.98;;;5.42;74.81
62436;BME280;48480;50.252;18.848;2024-02-26T05:29:46;97586.95;;;5.32;74.99
62436;BME280;48480;50.252;18.848;2024-02-26T05:32:30;97596.27;;;5.42;74.84
62436;BME280;48480;50.252;18.848;2024-02-26T05:35:14;97596.63;;;5.51;74.71
62436;BME280;48480;50.252;18.848;2024-02-26T05:37:59;97598.89;;;5.58;74.58
62436;BME280;48480;50.252;18.848;2024-02-26T05:40:43;97602.17;;;5.58;74.50
62436;BME280;48480;50.252;18.848;2024-02-26T05:43:27;97605.67;;;5.57;74.52
62436;BME280;48480;50.252;18.848;2024-02-26T05:46:12;97606.49;;;5.49;74.65
62436;BME280;48480;50.252;18.848;2024-02-26T05:48:56;97607.52;;;5.43;74.93
62436;BME280;48480;50.252;18.848;2024-02-26T05:51:40;97608.35;;;5.37;74.87
62436;BME280;48480;50.252;18.848;2024-02-26T05:54:24;97610.42;;;5.29;75.05
62436;BME280;48480;50.252;18.848;2024-02-26T05:57:08;97606.73;;;5.20;75.18
62436;BME280;48480;50.252;18.848;2024-02-26T05:59:52;97609.73;;;5.05;75.36
62436;BME280;48480;50.252;18.848;2024-02-26T06:02:36;97610.31;;;4.92;75.79
62436;BME280;48480;50.252;18.848;2024-02-26T06:05:20;97610.20;;;4.80;76.02
62436;BME280;48480;50.252;18.848;2024-02-26T06:08:04;97616.79;;;4.75;76.39
62436;BME280;48480;50.252;18.848;2024-02-26T06:10:51;97620.36;;;4.74;76.60
62436;BME280;48480;50.252;18.848;2024-02-26T06:13:35;97623.86;;;4.80;76.78
62436;BME280;48480;50.252;18.848;2024-02-26T06:16:20;97625.02;;;4.88;76.81
62436;BME280;48480;50.252;18.848;2024-02-26T06:19:04;97620.33;;;4.93;76.82
62436;BME280;48480;50.252;18.848;2024-02-26T06:21:48;97626.58;;;5.02;76.92
62436;BME280;48480;50.252;18.848;2024-02-26T06:24:34;97632.63;;;5.07;77.14
62436;BME280;48480;50.252;18.848;2024-02-26T06:27:18;97631.84;;;5.14;77.30
62436;BME280;48480;50.252;18.848;2024-02-26T06:30:02;97633.59;;;5.20;77.11
62436;BME280;48480;50.252;18.848;2024-02-26T06:32:47;97626.66;;;5.23;77.22
62436;BME280;48480;50.252;18.848;2024-02-26T06:35:31;97635.87;;;5.36;77.11
62436;BME280;48480;50.252;18.848;2024-02-26T06:38:16;97633.91;;;5.41;77.04
62436;BME280;48480;50.252;18.848;2024-02-26T06:41:01;97633.56;;;5.44;77.08
62436;BME280;48480;50.252;18.848;2024-02-26T06:43:47;97636.12;;;5.47;76.93
62436;BME280;48480;50.252;18.848;2024-02-26T06:46:31;97636.86;;;5.50;76.90
62436;BME280;48480;50.252;18.848;2024-02-26T06:49:15;97637.56;;;5.53;77.10
62436;BME280;48480;50.252;18.848;2024-02-26T06:51:59;97638.41;;;5.60;76.96
62436;BME280;48480;50.252;18.848;2024-02-26T06:54:43;97642.90;;;5.73;76.77
62436;BME280;48480;50.252;18.848;2024-02-26T06:57:28;97641.04;;;5.84;76.61
62436;BME280;48480;50.252;18.848;2024-02-26T07:00:13;97639.23;;;5.95;76.49
62436;BME280;48480;50.252;18.848;2024-02-26T07:03:00;97640.40;;;6.00;76.29
62436;BME280;48480;50.252;18.848;2024-02-26T07:05:44;97636.19;;;6.04;76.55
62436;BME280;48480;50.252;18.848;2024-02-26T07:08:29;97635.31;;;6.06;76.34
62436;BME280;48480;50.252;18.848;2024-02-26T07:11:13;97640.38;;;6.12;76.50
62436;BME280;48480;50.252;18.848;2024-02-26T07:13:58;97642.83;;;6.18;76.40
62436;BME280;48480;50.252;18.848;2024-02-26T07:16:42;97644.46;;;6.23;76.28
62436;BME280;48480;50.252;18.848;2024-02-26T07:19:26;97651.31;;;6.30;76.22
62436;BME280;48480;50.252;18.848;2024-02-26T07:22:10;97648.48;;;6.38;76.07
62436;BME280;48480;50.252;18.848;2024-02-26T07:24:54;97646.48;;;6.43;75.80
62436;BME280;48480;50.252;18.848;2024-02-26T07:27:38;97643.81;;;6.52;75.95
62436;BME280;48480;50.252;18.848;2024-02-26T07:30:22;97639.08;;;6.61;75.86
62436;BME280;48480;50.252;18.848;2024-02-26T07:33:06;97640.11;;;6.82;75.65
62436;BME280;48480;50.252;18.848;2024-02-26T07:35:51;97642.14;;;7.17;75.41
62436;BME280;48480;50.252;18.848;2024-02-26T07:38:37;97639.09;;;7.71;74.65
62436;BME280;48480;50.252;18.848;2024-02-26T07:41:21;97635.23;;;8.27;73.31
62436;BME280;48480;50.252;18.848;2024-02-26T07:44:05;97630.50;;;8.88;71.79
62436;BME280;48480;50.252;18.848;2024-02-26T07:46:49;97639.09;;;9.63;70.20
62436;BME280;48480;50.252;18.848;2024-02-26T07:49:33;97644.19;;;10.22;68.34
62436;BME280;48480;50.252;18.848;2024-02-26T07:52:17;97606.84;;;10.63;65.99
62436;BME280;48480;50.252;18.848;2024-02-26T07:55:02;97647.30;;;11.43;63.63
62436;BME280;48480;50.252;18.848;2024-02-26T07:57:46;97653.77;;;11.97;62.60
62436;BME280;48480;50.252;18.848;2024-02-26T08:00:31;97654.25;;;12.45;60.93
62436;BME280;48480;50.252;18.848;2024-02-26T08:03:15;97653.79;;;12.74;58.62
62436;BME280;48480;50.252;18.848;2024-02-26T08:06:00;97652.70;;;12.71;58.65
62436;BME280;48480;50.252;18.848;2024-02-26T08:08:44;97649.55;;;12.61;58.15
62436;BME280;48480;50.252;18.848;2024-02-26T08:11:28;97649.64;;;12.49;58.10
62436;BME280;48480;50.252;18.848;2024-02-26T08:14:12;97653.05;;;12.40;57.92
62436;BME280;48480;50.252;18.848;2024-02-26T08:16:56;97654.63;;;12.39;58.09
62436;BME280;48480;50.252;18.848;2024-02-26T08:19:40;97647.42;;;12.46;57.95
62436;BME280;48480;50.252;18.848;2024-02-26T08:22:24;97649.17;;;12.62;57.45
62436;BME280;48480;50.252;18.848;2024-02-26T08:25:09;97650.85;;;12.73;56.94
62436;BME280;48480;50.252;18.848;2024-02-26T08:27:54;97652.27;;;12.72;56.38
62436;BME280;48480;50.252;18.848;2024-02-26T08:30:38;97654.66;;;12.73;56.27
62436;BME280;48480;50.252;18.848;2024-02-26T08:33:22;97657.45;;;12.73;56.16
62436;BME280;48480;50.252;18.848;2024-02-26T08:36:07;97653.36;;;12.83;56.03
62436;BME280;48480;50.252;18.848;2024-02-26T08:38:51;97651.09;;;13.01;55.91
62436;BME280;48480;50.252;18.848;2024-02-26T08:41:36;97648.02;;;13.16;55.09
62436;BME280;48480;50.252;18.848;2024-02-26T08:44:20;97648.41;;;13.48;54.89
62436;BME280;48480;50.252;18.848;2024-02-26T08:47:04;97651.13;;;13.88;54.04
62436;BME280;48480;50.252;18.848;2024-02-26T08:49:48;97647.49;;;13.95;53.19
62436;BME280;48480;50.252;18.848;2024-02-26T08:52:32;97647.46;;;13.86;53.58
62436;BME280;48480;50.252;18.848;2024-02-26T08:55:17;97647.54;;;13.89;53.81
62436;BME280;48480;50.252;18.848;2024-02-26T08:58:01;97646.23;;;14.16;53.38
62436;BME280;48480;50.252;18.848;2024-02-26T09:00:45;97647.77;;;14.47;52.79
62436;BME280;48480;50.252;18.848;2024-02-26T09:03:29;97648.26;;;14.81;52.07
62436;BME280;48480;50.252;18.848;2024-02-26T09:06:16;97648.16;;;15.24;50.81
62436;BME280;48480;50.252;18.848;2024-02-26T09:09:00;97647.79;;;15.60;50.06
62436;BME280;48480;50.252;18.848;2024-02-26T09:11:44;97642.57;;;16.11;49.49
62436;BME280;48480;50.252;18.848;2024-02-26T09:14:28;97637.52;;;16.62;48.56
62436;BME280;48480;50.252;18.848;2024-02-26T09:17:12;97640.70;;;17.02;46.66
62436;BME280;48480;50.252;18.848;2024-02-26T09:19:56;97639.35;;;17.24;45.82
62436;BME280;48480;50.252;18.848;2024-02-26T09:22:41;97634.95;;;17.45;44.82
62436;BME280;48480;50.252;18.848;2024-02-26T09:25:26;97630.91;;;17.58;44.12
62436;BME280;48480;50.252;18.848;2024-02-26T09:28:10;97632.49;;;17.70;44.22
62436;BME280;48480;50.252;18.848;2024-02-26T09:30:54;97633.05;;;17.52;43.99
62436;BME280;48480;50.252;18.848;2024-02-26T09:33:38;97632.95;;;17.16;44.11
62436;BME280;48480;50.252;18.848;2024-02-26T09:36:22;97633.80;;;16.82;44.93
62436;BME280;48480;50.252;18.848;2024-02-26T09:39:06;97635.20;;;16.52;45.47
62436;BME280;48480;50.252;18.848;2024-02-26T09:41:56;97640.01;;;16.26;45.88
62436;BME280;48480;50.252;18.848;2024-02-26T09:44:41;97637.95;;;16.13;46.25
62436;BME280;48480;50.252;18.848;2024-02-26T09:47:28;97636.67;;;15.94;46.02
62436;BME280;48480;50.252;18.848;2024-02-26T09:50:17;97636.75;;;15.55;46.85
62436;BME280;48480;50.252;18.848;2024-02-26T09:53:01;97643.77;;;15.31;47.55
62436;BME280;48480;50.252;18.848;2024-02-26T09:55:46;97644.80;;;15.14;47.91
62436;BME280;48480;50.252;18.848;2024-02-26T09:58:31;97637.77;;;15.02;48.43
62436;BME280;48480;50.252;18.848;2024-02-26T10:01:19;97641.73;;;14.99;48.57
62436;BME280;48480;50.252;18.848;2024-02-26T10:04:04;97638.65;;;14.89;48.73
62436;BME280;48480;50.252;18.848;2024-02-26T10:06:48;97638.39;;;14.88;48.77
62436;BME280;48480;50.252;18.848;2024-02-26T10:09:33;97636.15;;;14.81;48.68
62436;BME280;48480;50.252;18.848;2024-02-26T10:12:17;97634.84;;;14.71;49.24
62436;BME280;48480;50.252;18.848;2024-02-26T10:15:02;97641.77;;;14.70;49.73
62436;BME280;48480;50.252;18.848;2024-02-26T10:17:46;97638.87;;;14.88;49.51
62436;BME280;48480;50.252;18.848;2024-02-26T10:20:31;97636.73;;;15.06;49.40
62436;BME280;48480;50.252;18.848;2024-02-26T10:23:15;97635.69;;;15.14;49.20
62436;BME280;48480;50.252;18.848;2024-02-26T10:25:59;97634.14;;;15.14;48.69
62436;BME280;48480;50.252;18.848;2024-02-26T10:28:45;97631.85;;;15.16;48.94
62436;BME280;48480;50.252;18.848;2024-02-26T10:31:29;97630.67;;;15.26;48.97
62436;BME280;48480;50.252;18.848;2024-02-26T10:34:17;97630.98;;;15.32;49.21
62436;BME280;48480;50.252;18.848;2024-02-26T10:37:02;97632.31;;;15.40;49.20
62436;BME280;48480;50.252;18.848;2024-02-26T10:39:47;97627.05;;;15.45;49.17
62436;BME280;48480;50.252;18.848;2024-02-26T10:42:31;97626.96;;;15.50;49.16
62436;BME280;48480;50.252;18.848;2024-02-26T10:45:16;97626.38;;;15.46;49.27
62436;BME280;48480;50.252;18.848;2024-02-26T10:48:00;97622.48;;;15.44;48.60
62436;BME280;48480;50.252;18.848;2024-02-26T10:50:45;97625.29;;;15.45;48.84
62436;BME280;48480;50.252;18.848;2024-02-26T10:53:33;97626.27;;;15.45;48.59
62436;BME280;48480;50.252;18.848;2024-02-26T10:56:19;97623.02;;;15.38;48.66
62436;BME280;48480;50.252;18.848;2024-02-26T10:59:07;97623.02;;;15.25;48.78
62436;BME280;48480;50.252;18.848;2024-02-26T11:01:51;97620.14;;;15.17;49.25
62436;BME280;48480;50.252;18.848;2024-02-26T11:04:37;97604.33;;;15.06;49.71
62436;BME280;48480;50.252;18.848;2024-02-26T11:07:22;97613.38;;;15.07;49.48
62436;BME280;48480;50.252;18.848;2024-02-26T11:10:09;97613.15;;;15.02;49.42
62436;BME280;48480;50.252;18.848;2024-02-26T11:12:54;97614.90;;;14.95;49.78
62436;BME280;48480;50.252;18.848;2024-02-26T11:15:39;97611.84;;;15.03;49.85
62436;BME280;48480;50.252;18.848;2024-02-26T11:18:23;97616.30;;;15.18;49.63
62436;BME280;48480;50.252;18.848;2024-02-26T11:21:13;97615.00;;;15.32;49.57
62436;BME280;48480;50.252;18.848;2024-02-26T11:24:02;97611.73;;;15.42;49.37
62436;BME280;48480;50.252;18.848;2024-02-26T11:26:52;97608.04;;;15.50;49.23
62436;BME280;48480;50.252;18.848;2024-02-26T11:29:47;97604.56;;;15.63;49.37
62436;BME280;48480;50.252;18.848;2024-02-26T11:32:33;97607.27;;;15.77;48.70
62436;BME280;48480;50.252;18.848;2024-02-26T11:35:19;97608.17;;;15.74;48.61
62436;BME280;48480;50.252;18.848;2024-02-26T11:38:03;97610.79;;;15.79;48.46
62436;BME280;48480;50.252;18.848;2024-02-26T11:40:50;97609.73;;;15.82;48.58
62436;BME280;48480;50.252;18.848;2024-02-26T11:46:41;97602.29;;;16.03;49.13
62436;BME280;48480;50.252;18.848;2024-02-26T11:49:30;97603.80;;;16.15;48.66
62436;BME280;48480;50.252;18.848;2024-02-26T11:52:15;97603.91;;;16.18;48.21
62436;BME280;48480;50.252;18.848;2024-02-26T11:55:00;97596.96;;;16.11;47.97
62436;BME280;48480;50.252;18.848;2024-02-26T11:57:44;97603.31;;;16.04;48.06
62436;BME280;48480;50.252;18.848;2024-02-26T12:00:28;97599.20;;;16.02;48.42
62436;BME280;48480;50.252;18.848;2024-02-26T12:03:16;97598.80;;;16.10;48.76
62436;BME280;48480;50.252;18.848;2024-02-26T12:06:01;97602.02;;;16.24;48.77
62436;BME280;48480;50.252;18.848;2024-02-26T12:08:46;97603.67;;;16.36;47.97
62436;BME280;48480;50.252;18.848;2024-02-26T12:11:30;97600.80;;;16.34;47.90
62436;BME280;48480;50.252;18.848;2024-02-26T12:14:17;97600.56;;;16.25;47.89
62436;BME280;48480;50.252;18.848;2024-02-26T12:17:02;97599.24;;;16.14;48.25
62436;BME280;48480;50.252;18.848;2024-02-26T12:19:50;97597.10;;;16.01;48.72
62436;BME280;48480;50.252;18.848;2024-02-26T12:22:37;97596.64;;;15.86;48.73
62436;BME280;48480;50.252;18.848;2024-02-26T12:25:28;97593.70;;;15.77;48.86
62436;BME280;48480;50.252;18.848;2024-02-26T12:28:14;97596.02;;;15.71;49.07
62436;BME280;48480;50.252;18.848;2024-02-26T12:30:59;97596.89;;;15.67;49.28
62436;BME280;48480;50.252;18.848;2024-02-26T12:33:43;97595.46;;;15.64;49.40
62436;BME280;48480;50.252;18.848;2024-02-26T12:36:28;97593.94;;;15.59;49.42
62436;BME280;48480;50.252;18.848;2024-02-26T12:39:12;97598.83;;;15.54;49.91
62436;BME280;48480;50.252;18.848;2024-02-26T12:41:57;97602.74;;;15.46;49.75
62436;BME280;48480;50.252;18.848;2024-02-26T12:44:49;97605.87;;;15.36;50.30
62436;BME280;48480;50.252;18.848;2024-02-26T12:47:44;97606.42;;;15.26;50.34
62436;BME280;48480;50.252;18.848;2024-02-26T12:50:33;97608.36;;;15.13;50.71
62436;BME280;48480;50.252;18.848;2024-02-26T12:53:18;97609.44;;;15.02;50.87
62436;BME280;48480;50.252;18.848;2024-02-26T12:56:03;97611.63;;;14.87;51.50
62436;BME280;48480;50.252;18.848;2024-02-26T12:58:48;97607.91;;;14.75;51.85
62436;BME280;48480;50.252;18.848;2024-02-26T13:01:34;97602.65;;;14.74;52.23
62436;BME280;48480;50.252;18.848;2024-02-26T13:04:19;97607.45;;;14.76;52.35
62436;BME280;48480;50.252;18.848;2024-02-26T13:07:04;97610.13;;;14.69;52.32
62436;BME280;48480;50.252;18.848;2024-02-26T13:09:48;97608.52;;;14.70;52.50
62436;BME280;48480;50.252;18.848;2024-02-26T13:12:32;97608.27;;;14.69;52.63
62436;BME280;48480;50.252;18.848;2024-02-26T13:15:18;97608.58;;;14.68;52.75
62436;BME280;48480;50.252;18.848;2024-02-26T13:18:14;97611.70;;;14.71;52.78
62436;BME280;48480;50.252;18.848;2024-02-26T13:21:13;97613.98;;;14.74;52.63
62436;BME280;48480;50.252;18.848;2024-02-26T13:23:58;97613.67;;;14.74;52.55
62436;BME280;48480;50.252;18.848;2024-02-26T13:26:43;97607.61;;;14.76;52.56
62436;BME280;48480;50.252;18.848;2024-02-26T13:29:26;97600.33;;;14.79;52.88
62436;BME280;48480;50.252;18.848;2024-02-26T13:32:11;97603.13;;;14.81;52.39
62436;BME280;48480;50.252;18.848;2024-02-26T13:35:07;97597.92;;;14.78;52.57
62436;BME280;48480;50.252;18.848;2024-02-26T13:37:51;97600.31;;;14.84;52.68
62436;BME280;48480;50.252;18.848;2024-02-26T13:40:35;97593.67;;;14.89;52.47
62436;BME280;48480;50.252;18.848;2024-02-26T13:43:19;97596.02;;;14.92;52.56
62436;BME280;48480;50.252;18.848;2024-02-26T13:46:04;97600.32;;;14.90;52.52
62436;BME280;48480;50.252;18.848;2024-02-26T13:48:49;97597.88;;;14.86;52.61
62436;BME280;48480;50.252;18.848;2024-02-26T13:51:33;97595.74;;;14.82;52.78
62436;BME280;48480;50.252;18.848;2024-02-26T13:54:19;97596.29;;;14.78;52.82
62436;BME280;48480;50.252;18.848;2024-02-26T13:57:03;97595.43;;;14.66;53.10
62436;BME280;48480;50.252;18.848;2024-02-26T13:59:48;97603.23;;;14.61;53.19
62436;BME280;48480;50.252;18.848;2024-02-26T14:02:32;97599.59;;;14.56;53.31
62436;BME280;48480;50.252;18.848;2024-02-26T14:05:19;97602.91;;;14.53;53.41
62436;BME280;48480;50.252;18.848;2024-02-26T14:08:03;97602.02;;;14.50;53.33
62436;BME280;48480;50.252;18.848;2024-02-26T14:10:47;97604.73;;;14.42;53.39
62436;BME280;48480;50.252;18.848;2024-02-26T14:13:31;97602.75;;;14.38;53.72
62436;BME280;48480;50.252;18.848;2024-02-26T14:16:15;97601.27;;;14.37;53.88
62436;BME280;48480;50.252;18.848;2024-02-26T14:19:00;97599.75;;;14.38;54.16
62436;BME280;48480;50.252;18.848;2024-02-26T14:21:44;97600.29;;;14.43;54.05
62436;BME280;48480;50.252;18.848;2024-02-26T14:24:28;97596.20;;;14.43;54.31
62436;BME280;48480;50.252;18.848;2024-02-26T14:27:13;97599.58;;;14.47;54.65
62436;BME280;48480;50.252;18.848;2024-02-26T14:30:01;97605.98;;;14.46;54.57